メインページ
METAR-TAF:

METAR-TAF

空港 :

静岡空港

静岡, 日本

緯度: 34-47-46N, 経度: 138-11-22E, 海抜: 132m

現時点の気象観測

当レポートは22分前の07:00(UTC)に作成
東/南東の風 6kt、東/北東から南/南東の間で変化する
気温 28°C
湿度 70%
気圧 1011 hPa
視程10km以上
高度2500ftの雲はほとんどない
高度3000ftの雲は散在している
高度4500ftの千切れ雲あり
弱いにわか雨

METAR: RJNS 200700Z 11006KT 070V150 9999 -SHRA FEW025 SCT030 BKN045 28/22 Q1011

時間: 16:22 (07:22 UTC)

予報

当レポートは2時間16分前の05:06(UTC)に作成
予報は20日の 06時(UTC)から 21日の 12時(UTC)まで有効
北東の風 6kt
視程10km以上
高度1000ftの雲はほとんどない
高度4000ftの千切れ雲あり
20日の 13時(UTC)から 20日の 15時(UTC)まで徐々に
の風 5kt
20日の 18時(UTC)から 21日の 00時(UTC)まで一時的に
高度500ftの雲はほとんどない
高度800ftの千切れ雲あり
21日の 00時(UTC)から 21日の 03時(UTC)まで徐々に
南東の風 8kt

TAF: RJNS 200506Z 2006/2112 05006KT 9999 FEW010 BKN040 BECMG 2013/2015 01005KT TEMPO 2018/2100 FEW005 BKN008 BECMG 2100/2103 13008KT

4,000以上の空港の気象観測と天気予報(METAR報とTAF報)

利用可能な観測所は地図上に黄色い丸と赤い丸で示す。

丸の上にカーソルを重ねると観測所名を参照できる。

次にクリックすると気象観測と天気予報を参照できる。

マップの切り替え:黒色「×」印の緑ボタンをクリックして拡大、「-」印の緑ボタンをクリックして縮小、緑色の三角印をクリックして隣りの地図に切り替え


METAR-TAF: